Time;durP1;ratioP1;P1;durP2;ratioP2;P2;SDS_P1;SDS_P2;PMS_P1;PMS_P2;Temp;Humidity;BMP_temperature;BMP_pressure;BME280_temperature;BME280_humidity;BME280_pressure;Samples;Min_cycle;Max_cycle;Signal;HPM_P1;HPM_P2
2022/02/25 00:02:14;;;;;;;;;;;7.00;86.10;;;;;;5073058;28;20002;-77
2022/02/25 00:04:40;;;;;;;;;;;6.30;89.60;;;;;;5074188;28;19916;-77
2022/02/25 00:07:06;;;;;;;;;;;5.90;90.90;;;;;;5072771;28;19954;-77
2022/02/25 00:09:31;;;;;;;;;;;5.80;92.70;;;;;;5073873;28;19920;-77
2022/02/25 00:11:57;;;;;;;;;;;5.70;94.60;;;;;;5072007;28;19909;-77
2022/02/25 00:14:23;;;;;;;;;;;5.50;99.90;;;;;;5072451;28;20054;-77
2022/02/25 00:16:49;;;;;;;;;;;5.40;99.90;;;;;;5072623;28;19916;-77
2022/02/25 00:19:15;;;;;;;;;;;5.20;99.90;;;;;;5074090;28;19916;-77
2022/02/25 00:21:40;;;;;;;;;;;5.20;99.90;;;;;;5072535;28;19926;-77
2022/02/25 00:24:06;;;;;;;;;;;5.20;99.90;;;;;;5055686;28;20007;-77
2022/02/25 00:26:32;;;;;;;;;;;5.10;99.90;;;;;;5055495;28;19935;-77
2022/02/25 00:28:57;;;;;;;;;;;4.90;99.90;;;;;;5072184;28;19935;-77
2022/02/25 00:31:23;;;;;;;;;;;4.60;99.90;;;;;;5073603;28;20320;-78
2022/02/25 00:33:48;;;;;;;;;;;4.40;99.90;;;;;;5072116;28;19991;-77
2022/02/25 00:36:14;;;;;;;;;;;4.40;99.90;;;;;;5055081;28;19951;-77
2022/02/25 00:38:40;;;;;;;;;;;4.40;99.90;;;;;;5073672;28;19951;-77
2022/02/25 00:41:05;;;;;;;;;;;4.20;99.90;;;;;;5072362;28;19932;-77
2022/02/25 00:43:31;;;;;;;;;;;4.50;99.90;;;;;;5073351;28;19916;-77
2022/02/25 00:45:56;;;;;;;;;;;4.70;99.90;;;;;;5055136;28;20261;-77
2022/02/25 00:48:22;;;;;;;;;;;5.00;99.90;;;;;;5055407;28;19909;-77
2022/02/25 00:50:48;;;;;;;;;;;5.10;99.90;;;;;;5073375;28;19916;-77
2022/02/25 00:53:13;;;;;;;;;;;5.10;99.90;;;;;;5073246;28;19915;-77
2022/02/25 00:55:39;;;;;;;;;;;5.00;99.90;;;;;;5071227;28;20280;-77
2022/02/25 00:58:04;;;;;;;;;;;4.80;99.90;;;;;;5073164;28;19908;-77
2022/02/25 01:00:30;;;;;;;;;;;4.70;99.90;;;;;;5073133;28;19916;-77
2022/02/25 01:02:56;;;;;;;;;;;4.90;99.90;;;;;;5055097;28;19952;-77
2022/02/25 01:05:21;;;;;;;;;;;4.70;99.90;;;;;;5073074;28;19962;-77
2022/02/25 01:07:47;;;;;;;;;;;4.80;99.90;;;;;;5071806;28;19931;-77
2022/02/25 01:10:15;;;;;;;;;;;4.50;99.90;;;;;;5071820;28;19917;-77
2022/02/25 01:12:41;;;;;;;;;;;4.20;99.90;;;;;;5074868;28;20372;-78
2022/02/25 01:15:06;;;;;;;;;;;4.30;99.90;;;;;;5077169;28;19920;-77
2022/02/25 01:17:33;;;;;;;;;;;4.10;99.90;;;;;;5076728;28;19912;-77
2022/02/25 01:19:59;;;;;;;;;;;4.10;99.90;;;;;;5075745;28;19909;-77
2022/02/25 01:22:25;;;;;;;;;;;4.30;99.90;;;;;;5075706;28;19908;-77
2022/02/25 01:24:51;;;;;;;;;;;4.30;99.90;;;;;;5075842;28;19915;-77
2022/02/25 01:27:17;;;;;;;;;;;4.30;99.90;;;;;;5076929;28;19962;-77
2022/02/25 01:29:43;;;;;;;;;;;4.40;99.90;;;;;;5075486;28;19919;-77
2022/02/25 01:32:09;;;;;;;;;;;4.70;99.90;;;;;;5076762;28;19974;-77
2022/02/25 01:34:35;;;;;;;;;;;4.80;99.90;;;;;;5058651;28;19960;-77
2022/02/25 01:37:01;;;;;;;;;;;4.50;99.90;;;;;;5075315;28;19922;-77
2022/02/25 01:39:26;;;;;;;;;;;4.60;99.90;;;;;;5075064;28;19987;-77
2022/02/25 01:41:52;;;;;;;;;;;4.20;99.90;;;;;;5075278;28;20007;-77
2022/02/25 01:44:22;;;;;;;;;;;4.20;99.90;;;;;;5075240;28;19908;-77
2022/02/25 01:46:52;;;;;;;;;;;4.20;99.90;;;;;;5075318;28;19908;-77
2022/02/25 01:49:18;;;;;;;;;;;4.10;99.90;;;;;;5076569;28;19912;-77
2022/02/25 01:51:44;;;;;;;;;;;3.90;99.90;;;;;;5075102;28;19908;-77
2022/02/25 01:54:10;;;;;;;;;;;3.90;99.90;;;;;;5074951;28;19908;-77
2022/02/25 01:56:40;;;;;;;;;;;3.80;99.90;;;;;;5076021;28;19958;-78
2022/02/25 01:59:06;;;;;;;;;;;3.80;99.90;;;;;;5076207;28;19957;-77
2022/02/25 02:01:32;;;;;;;;;;;4.00;99.90;;;;;;5076145;28;20329;-77
2022/02/25 02:03:57;;;;;;;;;;;3.90;99.90;;;;;;5076408;28;19909;-77
2022/02/25 02:09:09;;;;;;;;;;;3.50;99.90;;;;;;5074625;28;19917;-77
2022/02/25 02:11:36;;;;;;;;;;;3.40;99.90;;;;;;5057935;28;19913;-77
2022/02/25 02:14:03;;;;;;;;;;;3.40;99.90;;;;;;5075621;28;19920;-77
2022/02/25 02:16:28;;;;;;;;;;;3.40;99.90;;;;;;5057708;28;19909;-77
2022/02/25 02:18:54;;;;;;;;;;;3.40;99.90;;;;;;5075885;28;20441;-77
2022/02/25 02:21:24;;;;;;;;;;;3.40;99.90;;;;;;5075637;28;19908;-77
2022/02/25 02:23:50;;;;;;;;;;;3.40;99.90;;;;;;5074119;28;19908;-77
2022/02/25 02:26:16;;;;;;;;;;;3.40;99.90;;;;;;5075606;28;19909;-77
2022/02/25 02:28:41;;;;;;;;;;;3.20;99.90;;;;;;5057598;28;19927;-77
2022/02/25 02:31:07;;;;;;;;;;;3.20;99.90;;;;;;5074397;28;19908;-77
2022/02/25 02:33:32;;;;;;;;;;;3.30;99.90;;;;;;5074120;28;20378;-77
2022/02/25 02:35:58;;;;;;;;;;;3.30;99.90;;;;;;5073422;28;19912;-77
2022/02/25 02:38:24;;;;;;;;;;;3.20;99.90;;;;;;5074081;28;19908;-77
2022/02/25 02:40:49;;;;;;;;;;;2.80;99.90;;;;;;5075224;28;19913;-77
2022/02/25 02:43:15;;;;;;;;;;;2.60;99.90;;;;;;5075127;28;19927;-77
2022/02/25 02:45:41;;;;;;;;;;;2.80;99.90;;;;;;5074100;28;20382;-77
2022/02/25 02:48:07;;;;;;;;;;;2.90;99.90;;;;;;5075369;28;19908;-77
2022/02/25 02:50:32;;;;;;;;;;;2.80;99.90;;;;;;5074981;28;20007;-77
2022/02/25 02:52:58;;;;;;;;;;;2.70;99.90;;;;;;5075132;28;19944;-77
2022/02/25 02:55:24;;;;;;;;;;;2.80;99.90;;;;;;5073880;28;20412;-77
2022/02/25 02:57:50;;;;;;;;;;;2.90;99.90;;;;;;5073812;28;19915;-77
2022/02/25 03:00:16;;;;;;;;;;;2.80;99.90;;;;;;5075036;28;19908;-77
2022/02/25 03:02:42;;;;;;;;;;;2.80;99.90;;;;;;5057410;28;19912;-77
2022/02/25 03:05:08;;;;;;;;;;;2.70;99.90;;;;;;5056848;28;19909;-77
2022/02/25 03:07:33;;;;;;;;;;;2.60;99.90;;;;;;5073481;28;19909;-77
2022/02/25 03:09:59;;;;;;;;;;;2.70;99.90;;;;;;5074735;28;19916;-77
2022/02/25 03:12:25;;;;;;;;;;;2.80;99.90;;;;;;5056740;28;19934;-77
2022/02/25 03:14:50;;;;;;;;;;;2.70;99.90;;;;;;5074747;28;19924;-77
2022/02/25 03:17:16;;;;;;;;;;;2.60;99.90;;;;;;5074551;28;19918;-78
2022/02/25 03:19:42;;;;;;;;;;;2.50;99.90;;;;;;5072670;28;20265;-77
2022/02/25 03:22:08;;;;;;;;;;;2.50;99.90;;;;;;5073358;28;19912;-77
2022/02/25 03:24:33;;;;;;;;;;;2.40;99.90;;;;;;5073330;28;20268;-77
2022/02/25 03:26:59;;;;;;;;;;;2.50;99.90;;;;;;5074258;28;19909;-77
2022/02/25 03:29:26;;;;;;;;;;;2.70;99.90;;;;;;5074281;28;20370;-77
2022/02/25 03:31:51;;;;;;;;;;;2.80;99.90;;;;;;5073145;28;19909;-77
2022/02/25 03:34:17;;;;;;;;;;;2.60;99.90;;;;;;5055855;28;19916;-77
2022/02/25 03:36:43;;;;;;;;;;;2.60;99.90;;;;;;5073814;28;19909;-77
2022/02/25 03:39:08;;;;;;;;;;;2.50;99.90;;;;;;5074090;28;20364;-77
2022/02/25 03:41:34;;;;;;;;;;;2.40;99.90;;;;;;5056182;28;20007;-77
2022/02/25 03:44:00;;;;;;;;;;;2.50;99.90;;;;;;5072779;28;19908;-77
2022/02/25 03:46:25;;;;;;;;;;;2.40;99.90;;;;;;5072833;28;19909;-77
2022/02/25 03:48:51;;;;;;;;;;;2.30;99.90;;;;;;5072742;28;19938;-77
2022/02/25 03:51:17;;;;;;;;;;;2.40;99.90;;;;;;5055945;28;19908;-77
2022/02/25 03:53:43;;;;;;;;;;;2.40;99.90;;;;;;5072572;28;19934;-77
2022/02/25 03:56:09;;;;;;;;;;;2.40;99.90;;;;;;5072714;28;19893;-77
2022/02/25 03:58:34;;;;;;;;;;;2.20;99.90;;;;;;5072513;28;20321;-77
2022/02/25 04:01:00;;;;;;;;;;;2.20;99.90;;;;;;5073695;28;20008;-76
2022/02/25 04:03:26;;;;;;;;;;;2.00;99.90;;;;;;5071588;28;19912;-76
2022/02/25 04:05:51;;;;;;;;;;;2.00;99.90;;;;;;5073219;28;20371;-77
2022/02/25 04:08:17;;;;;;;;;;;1.80;99.90;;;;;;5073167;28;19909;-77
2022/02/25 04:10:42;;;;;;;;;;;1.70;99.90;;;;;;5072125;28;19918;-77
2022/02/25 04:13:08;;;;;;;;;;;1.80;99.90;;;;;;5055519;28;19912;-77
2022/02/25 04:15:34;;;;;;;;;;;1.80;99.90;;;;;;5055615;28;19912;-77
2022/02/25 04:18:00;;;;;;;;;;;2.00;99.90;;;;;;5072303;28;19909;-77
2022/02/25 04:20:26;;;;;;;;;;;2.00;99.90;;;;;;5073528;28;20310;-77
2022/02/25 04:22:51;;;;;;;;;;;1.90;99.90;;;;;;5072352;28;19912;-77
2022/02/25 04:25:17;;;;;;;;;;;1.70;99.90;;;;;;5055220;28;20007;-77
2022/02/25 04:27:44;;;;;;;;;;;1.70;99.90;;;;;;5072001;28;20376;-77
2022/02/25 04:30:10;;;;;;;;;;;1.60;99.90;;;;;;5071829;28;19912;-77
2022/02/25 04:32:36;;;;;;;;;;;1.60;99.90;;;;;;5073211;28;19931;-77
2022/02/25 04:35:02;;;;;;;;;;;1.50;99.90;;;;;;5072118;28;19916;-77
2022/02/25 04:37:28;;;;;;;;;;;1.50;99.90;;;;;;5071400;28;19908;-77
2022/02/25 04:39:54;;;;;;;;;;;1.60;99.90;;;;;;5071986;28;19903;-77
2022/02/25 04:42:19;;;;;;;;;;;1.50;99.90;;;;;;5073216;28;20428;-78
2022/02/25 04:44:45;;;;;;;;;;;1.30;99.90;;;;;;5071894;28;19909;-77
2022/02/25 04:47:10;;;;;;;;;;;1.30;99.90;;;;;;5071424;28;19908;-77
2022/02/25 04:49:36;;;;;;;;;;;1.40;99.90;;;;;;5054829;28;19962;-77
2022/02/25 04:52:02;;;;;;;;;;;1.40;99.90;;;;;;5071803;28;19913;-77
2022/02/25 04:54:27;;;;;;;;;;;1.10;99.90;;;;;;5054938;28;20369;-77
2022/02/25 04:56:53;;;;;;;;;;;1.20;99.90;;;;;;5054930;28;19933;-77
2022/02/25 04:59:28;;;;;;;;;;;1.10;99.90;;;;;;5073060;28;20423;-77
2022/02/25 05:01:53;;;;;;;;;;;1.20;99.90;;;;;;5071644;28;20013;-77
2022/02/25 05:04:19;;;;;;;;;;;1.10;99.90;;;;;;5072875;28;19917;-77
2022/02/25 05:06:45;;;;;;;;;;;1.00;99.90;;;;;;5054740;28;19908;-77
2022/02/25 05:09:10;;;;;;;;;;;1.00;99.90;;;;;;5054858;28;20474;-77
2022/02/25 05:11:36;;;;;;;;;;;0.90;99.90;;;;;;5054860;28;19951;-77
2022/02/25 05:14:02;;;;;;;;;;;0.90;99.90;;;;;;5054828;28;19928;-77
2022/02/25 05:21:56;;;;;;;;;;;0.90;99.90;;;;;;5071581;28;20383;-76
2022/02/25 05:24:22;;;;;;;;;;;0.80;99.90;;;;;;5072698;28;19912;-77
2022/02/25 05:26:47;;;;;;;;;;;1.00;99.90;;;;;;5072470;28;19948;-77
2022/02/25 05:29:13;;;;;;;;;;;1.00;99.90;;;;;;5054727;28;19912;-77
2022/02/25 05:31:39;;;;;;;;;;;0.80;99.90;;;;;;5071576;28;19908;-77
2022/02/25 05:34:04;;;;;;;;;;;0.90;99.90;;;;;;5071316;28;19909;-77
2022/02/25 05:36:30;;;;;;;;;;;0.80;99.90;;;;;;5070812;28;19940;-77
2022/02/25 05:38:56;;;;;;;;;;;0.80;99.90;;;;;;5072502;28;20364;-77
2022/02/25 05:41:22;;;;;;;;;;;0.80;99.90;;;;;;5071234;28;19909;-77
2022/02/25 05:43:47;;;;;;;;;;;0.90;99.90;;;;;;5071932;28;19932;-77
2022/02/25 05:46:13;;;;;;;;;;;0.90;99.90;;;;;;5072319;28;19916;-77
2022/02/25 05:48:39;;;;;;;;;;;0.90;99.90;;;;;;5072329;28;20356;-77
2022/02/25 05:51:05;;;;;;;;;;;0.70;99.90;;;;;;5071149;28;20382;-77
2022/02/25 05:53:30;;;;;;;;;;;0.70;99.90;;;;;;5072339;28;19909;-77
2022/02/25 05:55:56;;;;;;;;;;;0.80;99.90;;;;;;5071921;28;20377;-76
2022/02/25 05:58:22;;;;;;;;;;;0.90;99.90;;;;;;5056650;28;19935;-78
2022/02/25 06:00:47;;;;;;;;;;;0.80;99.90;;;;;;5074716;28;19909;-77
2022/02/25 06:03:13;;;;;;;;;;;0.80;99.90;;;;;;5074515;28;19908;-77
2022/02/25 06:05:39;;;;;;;;;;;0.80;99.90;;;;;;5075505;28;20441;-77
2022/02/25 06:08:04;;;;;;;;;;;0.90;99.90;;;;;;5074496;28;19909;-77
2022/02/25 06:10:30;;;;;;;;;;;0.80;99.90;;;;;;5074515;28;19912;-77
2022/02/25 06:12:56;;;;;;;;;;;0.80;99.90;;;;;;5074256;28;20424;-77
2022/02/25 06:15:21;;;;;;;;;;;0.90;99.90;;;;;;5075596;28;20303;-77
2022/02/25 06:17:50;;;;;;;;;;;1.00;99.90;;;;;;5074265;28;19912;-77
2022/02/25 06:20:16;;;;;;;;;;;1.00;99.90;;;;;;5074244;28;19978;-77
2022/02/25 06:22:42;;;;;;;;;;;1.00;99.90;;;;;;5057463;28;19912;-78
2022/02/25 06:25:08;;;;;;;;;;;0.90;99.90;;;;;;5074274;28;20019;-77
2022/02/25 06:27:35;;;;;;;;;;;0.90;99.90;;;;;;5073427;28;19962;-77
2022/02/25 06:30:01;;;;;;;;;;;0.90;99.90;;;;;;5057456;28;19913;-77
2022/02/25 06:32:27;;;;;;;;;;;1.00;99.90;;;;;;5075353;28;20394;-77
2022/02/25 06:34:52;;;;;;;;;;;1.00;99.90;;;;;;5071909;28;19919;-77
2022/02/25 06:37:20;;;;;;;;;;;1.00;99.90;;;;;;5093257;28;19909;-77
2022/02/25 06:39:45;;;;;;;;;;;1.00;99.90;;;;;;5076733;28;20402;-77
2022/02/25 06:42:11;;;;;;;;;;;1.10;99.90;;;;;;5096325;28;19909;-78
2022/02/25 06:44:38;;;;;;;;;;;1.10;99.90;;;;;;5094009;28;19915;-77
2022/02/25 06:47:03;;;;;;;;;;;0.90;99.90;;;;;;5093639;28;19915;-77
2022/02/25 06:49:29;;;;;;;;;;;0.90;99.90;;;;;;5095062;28;20379;-77
2022/02/25 06:51:55;;;;;;;;;;;1.00;99.90;;;;;;5083644;28;19919;-77
2022/02/25 06:54:20;;;;;;;;;;;0.90;99.90;;;;;;5057042;28;19916;-77
2022/02/25 06:56:46;;;;;;;;;;;1.00;99.90;;;;;;5073382;28;19908;-77
2022/02/25 06:59:11;;;;;;;;;;;1.10;99.90;;;;;;5074862;28;19912;-78
2022/02/25 07:01:37;;;;;;;;;;;1.20;99.90;;;;;;5076506;28;19909;-77
2022/02/25 07:04:04;;;;;;;;;;;1.30;99.90;;;;;;5093525;28;19908;-77
2022/02/25 07:06:29;;;;;;;;;;;1.40;99.90;;;;;;5093821;28;19912;-78
2022/02/25 07:08:55;;;;;;;;;;;1.40;99.90;;;;;;5094650;28;19919;-77
2022/02/25 07:11:21;;;;;;;;;;;1.40;99.90;;;;;;5094065;28;19943;-77
2022/02/25 07:13:47;;;;;;;;;;;1.40;99.90;;;;;;5091156;28;19955;-77
2022/02/25 07:16:13;;;;;;;;;;;1.40;99.90;;;;;;5076591;28;19916;-77
2022/02/25 07:18:39;;;;;;;;;;;1.40;99.90;;;;;;5094536;28;20210;-77
2022/02/25 07:21:04;;;;;;;;;;;1.40;99.90;;;;;;5093891;28;20284;-77
2022/02/25 07:23:30;;;;;;;;;;;1.30;99.90;;;;;;5095260;28;19961;-77
2022/02/25 07:25:56;;;;;;;;;;;1.30;99.90;;;;;;5091897;28;19909;-77
2022/02/25 07:28:21;;;;;;;;;;;1.30;99.90;;;;;;5092582;28;19912;-77
2022/02/25 07:30:47;;;;;;;;;;;1.20;99.90;;;;;;5093012;28;20013;-77
2022/02/25 07:33:13;;;;;;;;;;;1.20;99.90;;;;;;5093764;28;19908;-77
2022/02/25 07:35:38;;;;;;;;;;;1.10;99.90;;;;;;5091356;28;20275;-77
2022/02/25 07:38:04;;;;;;;;;;;1.30;99.90;;;;;;5093013;28;20018;-77
2022/02/25 07:40:30;;;;;;;;;;;1.50;99.90;;;;;;5091799;28;20375;-77
2022/02/25 07:42:55;;;;;;;;;;;1.50;99.90;;;;;;5091956;28;19909;-77
2022/02/25 07:45:21;;;;;;;;;;;1.40;99.90;;;;;;5092633;28;19907;-77
2022/02/25 07:47:47;;;;;;;;;;;1.50;99.90;;;;;;5091129;28;19915;-77
2022/02/25 07:50:13;;;;;;;;;;;1.60;99.90;;;;;;5091794;28;19919;-77
2022/02/25 07:52:39;;;;;;;;;;;1.60;99.90;;;;;;5071096;28;20265;-77
2022/02/25 07:55:06;;;;;;;;;;;1.60;99.90;;;;;;5090695;28;19915;-77
2022/02/25 07:57:32;;;;;;;;;;;1.70;99.90;;;;;;5073475;28;20272;-78
2022/02/25 07:59:58;;;;;;;;;;;1.70;99.90;;;;;;5091802;28;19909;-78
2022/02/25 08:02:24;;;;;;;;;;;1.80;99.90;;;;;;5092352;28;19961;-79
2022/02/25 08:04:49;;;;;;;;;;;1.90;99.90;;;;;;5091343;28;20002;-78
2022/02/25 08:07:15;;;;;;;;;;;1.90;99.90;;;;;;5090628;28;20348;-79
2022/02/25 08:09:41;;;;;;;;;;;1.90;99.90;;;;;;5090804;28;19912;-78
2022/02/25 08:12:07;;;;;;;;;;;2.00;99.90;;;;;;5091698;28;20466;-79
2022/02/25 08:14:37;;;;;;;;;;;1.90;99.90;;;;;;5092156;28;19927;-78
2022/02/25 08:17:04;;;;;;;;;;;1.90;99.90;;;;;;5091552;28;19916;-78
2022/02/25 08:19:30;;;;;;;;;;;1.90;99.90;;;;;;5090895;28;19908;-79
2022/02/25 08:21:55;;;;;;;;;;;1.90;99.90;;;;;;5091718;28;19912;-80
2022/02/25 08:24:21;;;;;;;;;;;1.70;99.90;;;;;;5069859;28;19908;-77
2022/02/25 08:26:46;;;;;;;;;;;1.70;99.90;;;;;;5090895;28;20011;-78
2022/02/25 08:29:12;;;;;;;;;;;1.80;99.90;;;;;;5074604;28;19955;-77
2022/02/25 08:31:38;;;;;;;;;;;2.00;99.90;;;;;;5091121;28;20335;-77
2022/02/25 08:34:03;;;;;;;;;;;2.00;99.90;;;;;;5091287;28;19931;-77
2022/02/25 08:36:29;;;;;;;;;;;1.80;99.90;;;;;;5073432;28;19995;-77
2022/02/25 08:38:55;;;;;;;;;;;1.80;99.90;;;;;;5091050;28;20002;-77
2022/02/25 08:41:20;;;;;;;;;;;1.90;99.90;;;;;;5073817;28;20411;-77
2022/02/25 08:43:47;;;;;;;;;;;1.90;99.90;;;;;;5090783;28;20292;-77
2022/02/25 08:46:13;;;;;;;;;;;1.80;99.90;;;;;;5092188;28;19951;-77
2022/02/25 08:48:38;;;;;;;;;;;1.90;99.90;;;;;;5073703;28;19908;-77
2022/02/25 08:51:04;;;;;;;;;;;2.00;99.90;;;;;;5092117;28;19908;-77
2022/02/25 08:53:30;;;;;;;;;;;2.00;99.90;;;;;;5074497;28;19908;-77
2022/02/25 08:55:55;;;;;;;;;;;2.00;99.90;;;;;;5092236;28;19908;-77
2022/02/25 08:58:21;;;;;;;;;;;2.20;99.90;;;;;;5090911;28;19909;-77
2022/02/25 09:00:47;;;;;;;;;;;2.40;99.90;;;;;;5090937;28;20288;-77
2022/02/25 09:03:12;;;;;;;;;;;2.40;99.90;;;;;;5091983;28;19908;-77
2022/02/25 09:05:38;;;;;;;;;;;2.60;99.90;;;;;;5091294;28;19999;-77
2022/02/25 09:08:04;;;;;;;;;;;2.80;99.90;;;;;;5098852;28;19915;-77
2022/02/25 09:10:30;;;;;;;;;;;2.90;99.90;;;;;;5092831;28;20494;-76
2022/02/25 09:12:56;;;;;;;;;;;2.80;99.90;;;;;;5099625;28;19919;-78
2022/02/25 09:15:24;;;;;;;;;;;2.90;99.90;;;;;;5078327;28;19934;-78
2022/02/25 09:17:55;;;;;;;;;;;2.80;99.90;;;;;;5091767;28;20011;-77
2022/02/25 09:20:21;;;;;;;;;;;2.90;99.90;;;;;;5091919;28;19983;-77
2022/02/25 09:22:47;;;;;;;;;;;2.80;99.90;;;;;;5094617;28;19931;-78
2022/02/25 09:25:13;;;;;;;;;;;2.80;99.90;;;;;;5088912;28;19912;-76
2022/02/25 09:27:39;;;;;;;;;;;2.90;99.90;;;;;;5091085;28;20034;-76
2022/02/25 09:30:07;;;;;;;;;;;2.70;99.90;;;;;;5090147;28;20205;-76
2022/02/25 09:32:33;;;;;;;;;;;2.80;99.90;;;;;;5074404;28;20342;-77
2022/02/25 09:34:58;;;;;;;;;;;2.60;99.90;;;;;;5095519;28;19908;-77
2022/02/25 09:37:24;;;;;;;;;;;2.60;99.90;;;;;;5094573;28;19908;-77
2022/02/25 09:39:50;;;;;;;;;;;3.10;99.90;;;;;;5075863;28;19908;-77
2022/02/25 09:42:18;;;;;;;;;;;3.50;99.90;;;;;;5095440;28;19908;-77
2022/02/25 09:44:44;;;;;;;;;;;3.80;99.90;;;;;;5094836;28;19909;-77
2022/02/25 09:47:09;;;;;;;;;;;3.90;99.90;;;;;;5095879;28;19909;-77
2022/02/25 09:49:35;;;;;;;;;;;4.00;99.90;;;;;;5096404;28;19916;-76
2022/02/25 09:52:01;;;;;;;;;;;4.30;99.90;;;;;;5095632;28;19915;-77
2022/02/25 09:54:26;;;;;;;;;;;4.30;99.90;;;;;;5094254;28;20500;-77
2022/02/25 09:56:52;;;;;;;;;;;4.70;99.90;;;;;;5094872;28;20294;-77
2022/02/25 09:59:18;;;;;;;;;;;4.90;99.90;;;;;;5095690;28;20319;-77
2022/02/25 10:01:44;;;;;;;;;;;4.90;99.90;;;;;;5095628;28;19908;-77
2022/02/25 10:04:17;;;;;;;;;;;4.20;99.90;;;;;;5094773;28;20360;-77
2022/02/25 10:06:43;;;;;;;;;;;3.90;99.90;;;;;;5090127;28;20391;-77
2022/02/25 10:09:28;;;;;;;;;;;3.70;99.90;;;;;;5077083;28;19911;-77
2022/02/25 10:12:09;;;;;;;;;;;3.10;99.90;;;;;;5093218;28;19908;-77
2022/02/25 10:14:36;;;;;;;;;;;3.10;99.90;;;;;;5093614;28;20287;-77
2022/02/25 10:17:06;;;;;;;;;;;2.80;99.90;;;;;;5093612;28;19919;-77
2022/02/25 10:19:32;;;;;;;;;;;3.40;99.90;;;;;;5092980;28;20709;-77
2022/02/25 10:22:13;;;;;;;;;;;3.40;99.90;;;;;;5095920;28;19908;-76
2022/02/25 10:24:43;;;;;;;;;;;3.40;99.90;;;;;;5092053;28;19908;-77
2022/02/25 10:27:16;;;;;;;;;;;3.60;99.90;;;;;;5091864;28;19909;-76
2022/02/25 10:29:53;;;;;;;;;;;3.70;99.90;;;;;;5073585;28;19912;-76
2022/02/25 10:32:25;;;;;;;;;;;3.80;99.90;;;;;;5093355;28;19908;-76
2022/02/25 10:34:51;;;;;;;;;;;4.40;99.90;;;;;;5095189;28;20391;-78
2022/02/25 10:37:16;;;;;;;;;;;5.00;99.90;;;;;;5150547;22;19932;-72
2022/02/25 10:39:43;;;;;;;;;;;5.30;99.90;;;;;;5074187;28;20255;-72
2022/02/25 10:42:15;;;;;;;;;;;5.70;99.90;;;;;;5071438;28;19916;-72
2022/02/25 10:44:45;;;;;;;;;;;5.70;99.90;;;;;;5073274;28;19923;-72
2022/02/25 10:47:14;;;;;;;;;;;6.40;99.70;;;;;;5073340;28;19913;-73
2022/02/25 10:49:39;;;;;;;;;;;6.70;98.90;;;;;;5072801;28;19920;-73
2022/02/25 10:52:26;;;;;;;;;;;7.00;95.40;;;;;;5073359;28;19908;-72
2022/02/25 10:54:52;;;;;;;;;;;7.40;94.90;;;;;;5072275;28;19912;-72
2022/02/25 10:57:19;;;;;;;;;;;7.30;94.30;;;;;;5055292;28;20015;-73
2022/02/25 10:59:46;;;;;;;;;;;7.50;92.00;;;;;;5055328;28;20372;-74
2022/02/25 11:02:30;;;;;;;;;;;7.60;91.20;;;;;;5055438;28;19915;-73
2022/02/25 11:05:00;;;;;;;;;;;7.50;90.20;;;;;;5073347;28;20468;-74
2022/02/25 11:07:29;;;;;;;;;;;7.50;89.10;;;;;;5055540;28;20367;-74
2022/02/25 11:09:54;;;;;;;;;;;8.10;88.40;;;;;;5055778;28;19912;-74
2022/02/25 11:12:20;;;;;;;;;;;8.50;88.30;;;;;;5055930;28;20295;-76
2022/02/25 11:14:46;;;;;;;;;;;7.90;85.40;;;;;;5055993;28;19912;-75
2022/02/25 11:17:12;;;;;;;;;;;8.20;87.20;;;;;;5074132;28;19912;-76
2022/02/25 11:19:39;;;;;;;;;;;8.80;82.30;;;;;;5073518;28;19913;-75
2022/02/25 11:22:06;;;;;;;;;;;9.80;81.90;;;;;;5074385;28;20295;-75
2022/02/25 11:24:37;;;;;;;;;;;10.50;73.00;;;;;;5073497;28;19908;-75
2022/02/25 11:27:06;;;;;;;;;;;10.60;72.20;;;;;;5055790;28;19961;-74
2022/02/25 11:29:52;;;;;;;;;;;9.90;74.40;;;;;;5054934;28;20265;-75
2022/02/25 11:32:21;;;;;;;;;;;9.90;75.30;;;;;;5055044;28;20279;-74
2022/02/25 11:34:47;;;;;;;;;;;9.00;75.90;;;;;;5072461;28;19984;-74
2022/02/25 11:37:13;;;;;;;;;;;7.60;81.40;;;;;;5072375;28;20402;-74
2022/02/25 11:39:43;;;;;;;;;;;7.10;88.50;;;;;;5072026;28;19915;-74
2022/02/25 11:42:09;;;;;;;;;;;7.10;91.50;;;;;;5073291;28;19908;-74
2022/02/25 11:44:35;;;;;;;;;;;6.50;89.30;;;;;;5038547;28;20360;-74
2022/02/25 11:47:02;;;;;;;;;;;5.90;92.20;;;;;;5038288;28;20347;-74
2022/02/25 11:49:29;;;;;;;;;;;4.70;92.30;;;;;;5072602;28;20007;-74
2022/02/25 11:51:57;;;;;;;;;;;4.20;92.80;;;;;;5072611;28;19916;-75
2022/02/25 11:57:02;;;;;;;;;;;4.80;95.70;;;;;;5072357;28;19908;-74
2022/02/25 11:59:31;;;;;;;;;;;6.10;93.20;;;;;;5054918;28;19914;-75
2022/02/25 12:02:09;;;;;;;;;;;7.00;91.40;;;;;;5073720;28;19946;-75
2022/02/25 12:04:39;;;;;;;;;;;8.30;87.70;;;;;;5072243;28;19908;-76
2022/02/25 12:07:06;;;;;;;;;;;8.90;81.50;;;;;;5055102;28;19908;-75
2022/02/25 12:09:48;;;;;;;;;;;8.50;77.70;;;;;;5054254;28;19912;-73
2022/02/25 12:12:20;;;;;;;;;;;7.70;82.80;;;;;;5072756;28;19999;-75
2022/02/25 12:15:04;;;;;;;;;;;7.90;83.50;;;;;;5072488;28;19995;-74
2022/02/25 12:17:45;;;;;;;;;;;8.50;82.30;;;;;;5072710;28;19909;-74
2022/02/25 12:20:19;;;;;;;;;;;7.80;82.50;;;;;;5038165;28;20375;-74
2022/02/25 12:22:57;;;;;;;;;;;8.60;83.20;;;;;;5054624;28;19908;-75
2022/02/25 12:25:38;;;;;;;;;;;9.20;75.50;;;;;;5072426;28;19916;-75
2022/02/25 12:28:10;;;;;;;;;;;9.50;73.40;;;;;;5072773;28;20359;-75
2022/02/25 12:30:39;;;;;;;;;;;8.20;79.60;;;;;;5071973;28;19912;-75
2022/02/25 12:33:39;;;;;;;;;;;8.20;79.10;;;;;;5072452;28;19908;-75
2022/02/25 12:36:17;;;;;;;;;;;7.00;79.70;;;;;;5028360;28;19925;-75
2022/02/25 12:38:44;;;;;;;;;;;6.50;85.40;;;;;;5072659;28;19909;-75
2022/02/25 12:41:10;;;;;;;;;;;6.20;85.10;;;;;;5071821;28;19995;-75
2022/02/25 12:43:45;;;;;;;;;;;6.00;86.80;;;;;;5071569;28;19999;-75
2022/02/25 12:46:10;;;;;;;;;;;6.10;87.70;;;;;;5072768;28;19954;-74
2022/02/25 12:48:36;;;;;;;;;;;5.60;87.40;;;;;;5072466;28;19916;-75
2022/02/25 12:51:02;;;;;;;;;;;6.10;88.00;;;;;;5072107;28;19958;-75
2022/02/25 12:53:28;;;;;;;;;;;6.20;88.00;;;;;;5073007;28;20294;-75
2022/02/25 12:55:55;;;;;;;;;;;7.10;89.00;;;;;;5072753;28;19991;-73
2022/02/25 12:58:34;;;;;;;;;;;8.20;87.70;;;;;;5053835;28;19909;-72
2022/02/25 13:01:00;;;;;;;;;;;8.40;75.00;;;;;;5053013;28;19909;-71
2022/02/25 13:03:25;;;;;;;;;;;8.10;73.70;;;;;;5073022;28;19915;-71
2022/02/25 13:05:54;;;;;;;;;;;8.80;71.60;;;;;;5054085;28;19909;-72
2022/02/25 13:08:20;;;;;;;;;;;9.30;72.00;;;;;;5075596;28;19912;-71
2022/02/25 13:10:58;;;;;;;;;;;9.20;67.60;;;;;;5075674;28;20338;-71
2022/02/25 13:13:24;;;;;;;;;;;9.70;65.90;;;;;;5076710;28;19924;-71
2022/02/25 13:16:02;;;;;;;;;;;8.80;64.10;;;;;;5075486;28;19908;-71
2022/02/25 13:18:27;;;;;;;;;;;8.70;65.50;;;;;;5076614;28;19909;-71
2022/02/25 13:21:01;;;;;;;;;;;8.40;63.90;;;;;;5075418;28;19912;-71
2022/02/25 13:23:27;;;;;;;;;;;8.00;66.30;;;;;;5075882;28;19993;-71
2022/02/25 13:26:05;;;;;;;;;;;8.50;67.90;;;;;;5075860;28;19913;-71
2022/02/25 13:28:32;;;;;;;;;;;8.30;64.90;;;;;;5075571;28;19915;-71
2022/02/25 13:30:58;;;;;;;;;;;7.90;69.10;;;;;;5075990;28;19916;-71
2022/02/25 13:33:24;;;;;;;;;;;7.80;69.80;;;;;;5075925;28;20275;-71
2022/02/25 13:35:55;;;;;;;;;;;7.40;69.50;;;;;;5075451;28;20260;-71
2022/02/25 13:38:23;;;;;;;;;;;7.00;71.00;;;;;;5075804;28;20029;-71
2022/02/25 13:40:48;;;;;;;;;;;6.70;73.20;;;;;;5075076;28;19908;-71
2022/02/25 13:43:20;;;;;;;;;;;6.40;73.50;;;;;;5075864;28;20000;-71
2022/02/25 13:45:47;;;;;;;;;;;6.50;74.40;;;;;;5074717;28;19927;-73
2022/02/25 13:53:43;;;;;;;;;;;6.20;71.20;;;;;;5075329;28;19915;-71
2022/02/25 13:56:09;;;;;;;;;;;6.10;72.10;;;;;;5075148;28;19908;-71
2022/02/25 13:58:35;;;;;;;;;;;6.30;72.70;;;;;;5074383;28;19913;-71
2022/02/25 14:01:00;;;;;;;;;;;6.70;72.50;;;;;;5076203;28;20352;-71
2022/02/25 14:03:41;;;;;;;;;;;6.90;69.90;;;;;;5074816;28;20008;-71
2022/02/25 14:06:20;;;;;;;;;;;6.50;68.40;;;;;;5074304;28;19919;-71
2022/02/25 14:08:46;;;;;;;;;;;6.00;68.70;;;;;;5074441;28;19943;-71
2022/02/25 14:11:12;;;;;;;;;;;5.90;68.60;;;;;;5075087;28;19912;-70
2022/02/25 14:13:44;;;;;;;;;;;5.80;67.60;;;;;;5074270;28;19915;-71
2022/02/25 14:16:11;;;;;;;;;;;5.70;68.10;;;;;;5074746;28;19955;-71
2022/02/25 14:18:36;;;;;;;;;;;5.40;68.20;;;;;;5074808;28;19920;-70
2022/02/25 14:21:02;;;;;;;;;;;5.40;68.70;;;;;;5057423;28;19913;-71
2022/02/25 14:23:29;;;;;;;;;;;5.50;69.40;;;;;;5074778;28;20398;-70
2022/02/25 14:25:55;;;;;;;;;;;5.60;68.70;;;;;;5074653;28;19991;-70
2022/02/25 14:28:28;;;;;;;;;;;5.50;69.10;;;;;;5075578;28;19991;-70
2022/02/25 14:30:55;;;;;;;;;;;5.40;70.10;;;;;;5074606;28;20382;-70
2022/02/25 14:33:28;;;;;;;;;;;5.30;70.10;;;;;;5073095;28;19909;-70
2022/02/25 14:36:10;;;;;;;;;;;5.10;70.50;;;;;;5073267;28;19912;-70
2022/02/25 14:38:36;;;;;;;;;;;4.90;69.50;;;;;;5073899;28;19919;-70
2022/02/25 14:41:02;;;;;;;;;;;4.90;71.20;;;;;;5056096;28;19916;-70
2022/02/25 14:43:27;;;;;;;;;;;5.10;70.80;;;;;;5073845;28;19908;-70
2022/02/25 14:45:53;;;;;;;;;;;5.20;71.30;;;;;;5073359;28;19965;-71
2022/02/25 14:48:19;;;;;;;;;;;5.40;70.70;;;;;;5074661;28;19909;-71